createdAt,value
2017-08-16T00:01:30.345Z,99.90
2017-08-16T00:03:57.864Z,99.90
2017-08-16T00:06:25.435Z,99.90
2017-08-16T00:08:52.953Z,99.90
2017-08-16T00:11:20.491Z,99.90
2017-08-16T00:13:48.338Z,99.90
2017-08-16T00:16:15.855Z,99.90
2017-08-16T00:18:43.369Z,99.90
2017-08-16T00:21:11.284Z,99.90
2017-08-16T00:23:39.360Z,99.90
2017-08-16T00:26:06.920Z,99.90
2017-08-16T00:28:34.483Z,99.90
2017-08-16T00:31:01.995Z,99.90
2017-08-16T00:33:29.508Z,99.90
2017-08-16T00:35:57.126Z,99.90
2017-08-16T00:38:24.634Z,99.90
2017-08-16T00:40:52.144Z,99.90
2017-08-16T00:43:19.712Z,99.90
2017-08-16T00:45:47.224Z,99.90
2017-08-16T00:48:14.741Z,99.90
2017-08-16T00:50:42.532Z,99.90
2017-08-16T00:53:10.136Z,99.90
2017-08-16T00:55:37.644Z,99.90
2017-08-16T00:58:05.483Z,99.90
2017-08-16T01:00:33.052Z,99.90
2017-08-16T01:03:00.320Z,99.90
2017-08-16T01:05:28.159Z,99.90
2017-08-16T01:07:55.705Z,99.90
2017-08-16T01:10:23.220Z,99.90
2017-08-16T01:12:50.770Z,99.90
2017-08-16T01:15:18.275Z,99.90
2017-08-16T01:17:45.807Z,99.90
2017-08-16T01:20:13.616Z,99.90
2017-08-16T01:22:41.119Z,99.90
2017-08-16T01:25:08.781Z,99.90
2017-08-16T01:27:36.375Z,99.90
2017-08-16T01:30:03.886Z,99.90
2017-08-16T01:32:31.538Z,99.90
2017-08-16T01:34:59.352Z,99.90
2017-08-16T01:37:26.880Z,99.90
2017-08-16T01:39:54.595Z,99.90
2017-08-16T01:42:22.210Z,99.90
2017-08-16T01:44:49.729Z,99.90
2017-08-16T01:47:17.261Z,99.90
2017-08-16T01:49:45.111Z,99.90
2017-08-16T01:52:12.625Z,99.90
2017-08-16T01:54:40.139Z,99.90
2017-08-16T01:57:08.127Z,99.90
2017-08-16T01:59:35.631Z,99.90
2017-08-16T02:02:03.151Z,99.90
2017-08-16T02:04:30.761Z,99.90
2017-08-16T02:06:58.292Z,99.90
2017-08-16T02:09:25.843Z,99.90
2017-08-16T02:11:53.399Z,99.90
2017-08-16T02:14:20.931Z,99.90
2017-08-16T02:16:48.452Z,99.90
2017-08-16T02:19:16.270Z,99.90
2017-08-16T02:21:43.801Z,99.90
2017-08-16T02:24:11.336Z,99.90
2017-08-16T02:26:39.238Z,99.90
2017-08-16T02:29:06.764Z,99.90
2017-08-16T02:31:34.524Z,99.90
2017-08-16T02:34:02.096Z,99.90
2017-08-16T02:36:29.608Z,99.90
2017-08-16T02:38:57.140Z,99.90
2017-08-16T02:41:24.582Z,99.90
2017-08-16T02:43:52.379Z,99.90
2017-08-16T02:46:19.903Z,99.90
2017-08-16T02:48:47.510Z,99.90
2017-08-16T02:51:15.059Z,99.90
2017-08-16T02:53:42.704Z,99.90
2017-08-16T02:56:10.334Z,99.90
2017-08-16T02:58:37.847Z,99.90
2017-08-16T03:01:05.356Z,99.90
2017-08-16T03:03:32.927Z,99.90
2017-08-16T03:06:00.573Z,99.90
2017-08-16T03:08:28.123Z,99.90
2017-08-16T03:10:55.731Z,99.90
2017-08-16T03:13:23.335Z,99.90
2017-08-16T03:15:50.868Z,99.90
2017-08-16T03:18:18.879Z,99.90
2017-08-16T03:20:46.509Z,99.90
2017-08-16T03:23:14.116Z,99.90
2017-08-16T03:25:42.090Z,99.90
2017-08-16T03:28:09.611Z,99.90
2017-08-16T03:30:37.184Z,99.90
2017-08-16T03:33:04.760Z,99.90
2017-08-16T03:35:32.427Z,99.90
2017-08-16T03:37:59.972Z,99.90
2017-08-16T03:40:27.669Z,99.90
2017-08-16T03:42:55.427Z,99.90
2017-08-16T03:45:23.142Z,99.90
2017-08-16T03:47:50.863Z,99.90
2017-08-16T03:50:18.390Z,99.90
2017-08-16T03:52:45.939Z,99.90
2017-08-16T03:55:13.810Z,99.90
2017-08-16T03:57:41.319Z,99.90
2017-08-16T04:00:08.879Z,99.90
2017-08-16T04:02:36.459Z,99.90
2017-08-16T04:05:04.112Z,99.90
2017-08-16T04:07:31.651Z,99.90
2017-08-16T04:09:59.265Z,99.90
2017-08-16T04:12:26.817Z,99.90
2017-08-16T04:14:54.504Z,99.90
2017-08-16T04:17:22.063Z,99.90
2017-08-16T04:19:49.671Z,99.90
2017-08-16T04:22:17.179Z,99.90
2017-08-16T04:24:45.003Z,99.90
2017-08-16T04:27:12.634Z,99.90
2017-08-16T04:29:40.403Z,99.90
2017-08-16T04:32:08.225Z,99.90
2017-08-16T04:34:35.934Z,99.90
2017-08-16T04:37:03.613Z,99.90
2017-08-16T04:39:31.474Z,99.90
2017-08-16T04:41:58.997Z,99.90
2017-08-16T04:44:26.534Z,99.90
2017-08-16T04:46:54.095Z,99.90
2017-08-16T04:49:21.624Z,99.90
2017-08-16T04:51:49.199Z,99.90
2017-08-16T04:54:16.991Z,99.90
2017-08-16T04:56:44.500Z,99.90
2017-08-16T04:59:12.013Z,99.90
2017-08-16T05:01:39.907Z,99.90
2017-08-16T05:04:07.443Z,99.90
2017-08-16T05:06:34.972Z,99.90
2017-08-16T05:09:02.619Z,99.90
2017-08-16T05:11:30.127Z,99.90
2017-08-16T05:13:57.697Z,99.90
2017-08-16T05:16:25.503Z,99.90
2017-08-16T05:18:53.035Z,99.90
2017-08-16T05:21:20.554Z,99.90
2017-08-16T05:23:48.145Z,99.90
2017-08-16T05:26:15.655Z,99.90
2017-08-16T05:28:43.163Z,99.90
2017-08-16T05:31:11.011Z,99.90
2017-08-16T05:33:38.847Z,99.90
2017-08-16T05:36:06.354Z,99.90
2017-08-16T05:38:34.278Z,99.90
2017-08-16T05:41:01.805Z,99.90
2017-08-16T05:43:29.319Z,99.90
2017-08-16T05:45:56.940Z,99.90
2017-08-16T05:48:24.464Z,99.90
2017-08-16T05:50:52.744Z,99.90
2017-08-16T05:53:20.528Z,99.90
2017-08-16T05:55:48.064Z,99.90
2017-08-16T05:58:15.675Z,99.90
2017-08-16T06:00:43.273Z,99.90
2017-08-16T06:03:10.779Z,99.90
2017-08-16T06:05:38.350Z,99.90
2017-08-16T06:08:06.095Z,99.90
2017-08-16T06:10:33.607Z,99.90
2017-08-16T06:13:01.411Z,99.90
2017-08-16T06:15:29.860Z,99.90
2017-08-16T06:17:57.810Z,99.90
2017-08-16T06:20:25.491Z,99.90
2017-08-16T06:22:53.307Z,99.90
2017-08-16T06:25:20.821Z,99.90
2017-08-16T06:27:48.923Z,99.90
2017-08-16T06:30:16.836Z,99.90
2017-08-16T06:32:44.416Z,99.90
2017-08-16T06:35:11.966Z,99.90
2017-08-16T06:37:39.579Z,99.90
2017-08-16T06:40:07.200Z,99.90
2017-08-16T06:42:34.708Z,99.90
2017-08-16T06:45:02.305Z,99.90
2017-08-16T06:47:30.335Z,99.90
2017-08-16T06:49:58.258Z,99.90
2017-08-16T06:52:26.071Z,99.90
2017-08-16T06:54:53.583Z,99.90
2017-08-16T06:57:21.179Z,99.90
2017-08-16T06:59:49.521Z,99.90
2017-08-16T07:02:17.060Z,99.90
2017-08-16T07:04:44.583Z,99.90
2017-08-16T07:07:12.151Z,99.90
2017-08-16T07:09:39.806Z,99.90
2017-08-16T07:12:07.316Z,99.90
2017-08-16T07:14:34.875Z,99.90
2017-08-16T07:17:02.387Z,99.90
2017-08-16T07:19:29.978Z,99.90
2017-08-16T07:21:57.911Z,99.90
2017-08-16T07:24:25.413Z,99.90
2017-08-16T07:26:52.923Z,99.90
2017-08-16T07:29:20.768Z,99.90
2017-08-16T07:31:48.295Z,99.90
2017-08-16T07:34:16.112Z,99.90
2017-08-16T07:36:43.939Z,99.90
2017-08-16T07:39:12.240Z,99.90
2017-08-16T07:41:39.759Z,99.90
2017-08-16T07:44:07.320Z,99.90
2017-08-16T07:46:34.671Z,99.90
2017-08-16T07:49:02.190Z,99.90
2017-08-16T07:51:29.715Z,99.90
2017-08-16T07:53:58.552Z,99.90
2017-08-16T07:56:26.067Z,99.90
2017-08-16T07:58:53.562Z,99.90
2017-08-16T08:01:22.081Z,99.90
2017-08-16T08:03:49.614Z,99.90
2017-08-16T08:06:17.123Z,99.90
2017-08-16T08:08:44.948Z,99.90
2017-08-16T08:11:12.479Z,99.90
2017-08-16T08:13:39.984Z,99.90
2017-08-16T08:16:07.855Z,99.90
2017-08-16T08:18:35.368Z,99.90
2017-08-16T08:21:02.880Z,99.90
2017-08-16T08:23:30.442Z,99.90
2017-08-16T08:25:57.981Z,99.90
2017-08-16T08:28:25.491Z,99.90
2017-08-16T08:30:53.283Z,99.90
2017-08-16T08:33:20.787Z,96.00
2017-08-16T08:35:48.353Z,95.00
2017-08-16T08:38:16.271Z,90.20
2017-08-16T08:40:43.771Z,82.10
2017-08-16T08:43:11.312Z,85.80
2017-08-16T08:45:38.912Z,82.70
2017-08-16T08:48:06.419Z,83.00
2017-08-16T08:50:33.927Z,84.20
2017-08-16T08:53:01.483Z,84.70
2017-08-16T08:55:28.984Z,85.70
2017-08-16T08:57:56.719Z,83.20
2017-08-16T09:00:24.275Z,84.70
2017-08-16T09:02:51.870Z,83.80
2017-08-16T09:05:19.413Z,82.80
2017-08-16T09:07:46.976Z,85.40
2017-08-16T09:10:14.595Z,78.70
2017-08-16T09:12:42.160Z,77.90
2017-08-16T09:15:09.724Z,74.40
2017-08-16T09:17:37.243Z,73.20
2017-08-16T09:20:04.748Z,74.00
2017-08-16T09:22:32.349Z,73.40
2017-08-16T09:24:59.846Z,70.30
2017-08-16T09:27:27.350Z,72.80
2017-08-16T09:29:54.906Z,74.60
2017-08-16T09:32:22.463Z,73.70
2017-08-16T09:34:49.955Z,75.10
2017-08-16T09:37:17.756Z,72.80
2017-08-16T09:39:45.354Z,73.00
2017-08-16T09:42:12.862Z,69.60
2017-08-16T09:44:40.724Z,70.50
2017-08-16T09:47:08.231Z,72.90
2017-08-16T09:49:35.730Z,72.60
2017-08-16T09:52:03.279Z,72.10
2017-08-16T09:54:30.787Z,69.00
2017-08-16T09:56:58.328Z,66.90
2017-08-16T09:59:25.900Z,65.90
2017-08-16T10:01:53.406Z,61.80
2017-08-16T10:04:20.924Z,61.90
2017-08-16T10:06:48.479Z,59.80
2017-08-16T10:09:15.984Z,57.90
2017-08-16T10:11:43.492Z,56.10
2017-08-16T10:14:11.071Z,54.70
2017-08-16T10:16:38.587Z,57.40
2017-08-16T10:19:06.099Z,57.50
2017-08-16T10:21:33.668Z,57.10
2017-08-16T10:24:01.245Z,58.40
2017-08-16T10:26:28.752Z,59.30
2017-08-16T10:28:56.780Z,60.40
2017-08-16T10:31:24.291Z,57.20
2017-08-16T10:33:51.802Z,54.40
2017-08-16T10:36:19.661Z,52.20
2017-08-16T10:38:47.435Z,52.60
2017-08-16T10:41:14.943Z,51.60
2017-08-16T10:43:42.552Z,52.70
2017-08-16T10:46:10.067Z,51.10
2017-08-16T10:48:37.579Z,50.20
2017-08-16T10:51:05.198Z,48.70
2017-08-16T10:53:32.703Z,51.40
2017-08-16T10:56:00.260Z,50.70
2017-08-16T10:58:27.815Z,50.20
2017-08-16T11:00:55.323Z,51.40
2017-08-16T11:03:22.823Z,51.10
2017-08-16T11:05:50.735Z,53.90
2017-08-16T11:08:18.235Z,53.80
2017-08-16T11:10:45.746Z,55.10
2017-08-16T11:13:13.315Z,54.00
2017-08-16T11:15:40.827Z,50.70
2017-08-16T11:18:08.344Z,49.20
2017-08-16T11:20:36.663Z,49.90
2017-08-16T11:23:04.169Z,47.90
2017-08-16T11:25:31.810Z,49.50
2017-08-16T11:27:59.338Z,53.00
2017-08-16T11:30:26.943Z,54.00
2017-08-16T11:32:54.447Z,50.50
2017-08-16T11:35:22.959Z,50.60
2017-08-16T11:37:50.463Z,49.70
2017-08-16T11:40:17.967Z,48.60
2017-08-16T11:42:45.869Z,47.10
2017-08-16T11:45:13.367Z,44.00
2017-08-16T11:47:40.871Z,45.80
2017-08-16T11:50:08.471Z,48.60
2017-08-16T11:52:35.975Z,49.70
2017-08-16T11:55:03.483Z,47.50
2017-08-16T11:57:31.051Z,48.10
2017-08-16T11:59:58.652Z,47.00
2017-08-16T12:02:26.151Z,42.60
2017-08-16T12:04:54.003Z,42.50
2017-08-16T12:07:21.503Z,42.00
2017-08-16T12:09:48.999Z,43.10
2017-08-16T12:12:16.547Z,41.90
2017-08-16T12:14:44.058Z,39.70
2017-08-16T12:17:11.594Z,40.80
2017-08-16T12:19:39.427Z,40.10
2017-08-16T12:22:07.143Z,38.90
2017-08-16T12:24:34.647Z,38.70
2017-08-16T12:27:02.313Z,38.10
2017-08-16T12:29:29.819Z,39.10
2017-08-16T12:31:57.367Z,38.60
2017-08-16T12:34:25.202Z,37.70
2017-08-16T12:36:52.699Z,39.80
2017-08-16T12:39:20.275Z,40.00
2017-08-16T12:41:48.351Z,38.70
2017-08-16T12:44:15.852Z,39.30
2017-08-16T12:46:43.536Z,40.00
2017-08-16T12:49:11.687Z,37.50
2017-08-16T12:51:39.215Z,40.00
2017-08-16T12:54:06.731Z,37.60
2017-08-16T12:56:34.405Z,39.40
2017-08-16T12:59:02.733Z,39.30
2017-08-16T13:01:30.230Z,38.90
2017-08-16T13:03:57.731Z,38.90
2017-08-16T13:06:25.303Z,40.30
2017-08-16T13:08:53.422Z,40.90
2017-08-16T13:11:20.927Z,43.50
2017-08-16T13:13:48.486Z,43.10
2017-08-16T13:16:15.990Z,42.60
2017-08-16T13:18:43.494Z,41.90
2017-08-16T13:21:11.039Z,42.90
2017-08-16T13:23:38.605Z,43.90
2017-08-16T13:26:06.944Z,42.90
2017-08-16T13:28:34.731Z,43.70
2017-08-16T13:31:02.227Z,44.70
2017-08-16T13:33:29.735Z,42.90
2017-08-16T13:35:57.315Z,42.10
2017-08-16T13:38:24.818Z,42.30
2017-08-16T13:40:52.322Z,42.30
2017-08-16T13:43:19.919Z,44.30
2017-08-16T13:45:48.064Z,46.50
2017-08-16T13:48:15.676Z,47.80
2017-08-16T13:50:43.550Z,50.40
2017-08-16T13:53:11.391Z,51.80
2017-08-16T13:55:38.904Z,54.30
2017-08-16T13:58:08.059Z,57.40
2017-08-16T14:00:35.731Z,59.60
2017-08-16T14:03:03.236Z,62.40
2017-08-16T14:05:30.747Z,64.30
2017-08-16T14:07:58.315Z,64.10
2017-08-16T14:10:25.827Z,65.40
2017-08-16T14:12:53.320Z,66.00
2017-08-16T14:15:20.923Z,65.80
2017-08-16T14:17:48.427Z,66.40
2017-08-16T14:20:15.939Z,65.00
2017-08-16T14:22:43.487Z,64.60
2017-08-16T14:25:10.995Z,59.90
2017-08-16T14:27:38.603Z,57.20
2017-08-16T14:30:06.159Z,57.10
2017-08-16T14:32:33.677Z,55.70
2017-08-16T14:35:01.183Z,52.40
2017-08-16T14:37:28.736Z,50.50
2017-08-16T14:39:56.249Z,47.00
2017-08-16T14:42:23.763Z,48.50
2017-08-16T14:44:51.299Z,49.10
2017-08-16T14:47:18.799Z,49.60
2017-08-16T14:49:46.312Z,52.70
2017-08-16T14:52:14.127Z,54.20
2017-08-16T14:54:41.635Z,52.70
2017-08-16T14:57:09.139Z,53.40
2017-08-16T14:59:36.689Z,52.50
2017-08-16T15:02:04.231Z,53.00
2017-08-16T15:04:31.789Z,52.80
2017-08-16T15:07:00.359Z,51.40
2017-08-16T15:09:28.280Z,52.80
2017-08-16T15:11:55.787Z,54.50
2017-08-16T15:14:23.340Z,54.30
2017-08-16T15:16:51.106Z,54.20
2017-08-16T15:19:18.610Z,56.60
2017-08-16T15:21:46.770Z,56.40
2017-08-16T15:24:14.276Z,58.00
2017-08-16T15:26:41.808Z,58.80
2017-08-16T15:29:09.696Z,61.10
2017-08-16T15:31:37.216Z,62.30
2017-08-16T15:34:04.720Z,63.30
2017-08-16T15:36:32.914Z,64.60
2017-08-16T15:39:00.438Z,66.60
2017-08-16T15:41:27.983Z,67.20
2017-08-16T15:43:56.023Z,68.10
2017-08-16T15:46:24.243Z,66.70
2017-08-16T15:48:51.819Z,65.90
2017-08-16T15:51:19.538Z,66.10
2017-08-16T15:53:47.043Z,67.70
2017-08-16T15:56:14.567Z,67.00
2017-08-16T15:58:42.134Z,68.20
2017-08-16T16:01:09.644Z,68.00
2017-08-16T16:03:37.312Z,67.20
2017-08-16T16:06:05.134Z,67.30
2017-08-16T16:08:32.630Z,68.10
2017-08-16T16:11:00.244Z,67.80
2017-08-16T16:13:28.152Z,67.80
2017-08-16T16:15:55.728Z,68.60
2017-08-16T16:18:23.369Z,69.70
2017-08-16T16:20:50.934Z,71.00
2017-08-16T16:23:18.429Z,72.50
2017-08-16T16:25:46.018Z,73.30
2017-08-16T16:28:13.581Z,73.40
2017-08-16T16:30:41.091Z,74.40
2017-08-16T16:33:08.631Z,74.60
2017-08-16T16:35:36.631Z,75.80
2017-08-16T16:38:04.335Z,75.20
2017-08-16T16:40:31.887Z,75.40
2017-08-16T16:42:59.632Z,76.80
2017-08-16T16:45:27.135Z,78.50
2017-08-16T16:47:54.648Z,78.60
2017-08-16T16:50:22.283Z,79.50
2017-08-16T16:52:49.792Z,79.80
2017-08-16T16:55:17.319Z,80.10
2017-08-16T16:57:45.132Z,79.90
2017-08-16T17:00:12.650Z,81.30
2017-08-16T17:02:40.149Z,81.50
2017-08-16T17:05:07.943Z,83.50
2017-08-16T17:07:35.464Z,84.70
2017-08-16T17:10:03.081Z,84.30
2017-08-16T17:12:30.631Z,85.60
2017-08-16T17:14:58.147Z,86.00
2017-08-16T17:17:25.681Z,86.20
2017-08-16T17:19:53.719Z,87.20
2017-08-16T17:22:21.227Z,87.00
2017-08-16T17:24:48.735Z,87.80
2017-08-16T17:27:16.308Z,90.00
2017-08-16T17:29:43.828Z,92.30
2017-08-16T17:32:11.327Z,93.20
2017-08-16T17:34:38.931Z,95.00
2017-08-16T17:37:06.484Z,98.10
2017-08-16T17:39:34.023Z,99.90
2017-08-16T17:42:02.834Z,99.90
2017-08-16T17:44:31.435Z,99.90
2017-08-16T17:46:59.022Z,99.90
2017-08-16T17:49:26.583Z,99.90
2017-08-16T17:51:54.347Z,99.90
2017-08-16T17:54:21.898Z,99.90
2017-08-16T17:56:49.404Z,99.90
2017-08-16T17:59:17.568Z,99.90
2017-08-16T18:01:45.083Z,99.90
2017-08-16T18:04:12.596Z,99.90
2017-08-16T18:06:40.179Z,99.90
2017-08-16T18:09:07.835Z,99.90
2017-08-16T18:11:35.339Z,99.90
2017-08-16T18:14:03.208Z,99.90
2017-08-16T18:16:30.800Z,99.90
2017-08-16T18:18:58.307Z,99.90
2017-08-16T18:21:26.319Z,99.90
2017-08-16T18:23:53.819Z,99.90
2017-08-16T18:26:21.367Z,99.90
2017-08-16T18:28:48.952Z,99.90
2017-08-16T18:31:16.538Z,99.90
2017-08-16T18:33:44.123Z,99.90
2017-08-16T18:36:11.715Z,99.90
2017-08-16T18:38:39.231Z,99.90
2017-08-16T18:41:06.783Z,99.90
2017-08-16T18:43:34.350Z,99.90
2017-08-16T18:46:02.551Z,99.90
2017-08-16T18:48:30.074Z,99.90
2017-08-16T18:50:57.964Z,99.90
2017-08-16T18:53:25.505Z,99.90
2017-08-16T18:55:53.031Z,99.90
2017-08-16T18:58:20.880Z,99.90
2017-08-16T19:00:48.527Z,99.90
2017-08-16T19:03:16.035Z,99.90
2017-08-16T19:05:43.882Z,99.90
2017-08-16T19:08:11.448Z,99.90
2017-08-16T19:10:39.576Z,99.90
2017-08-16T19:13:07.568Z,99.90
2017-08-16T19:15:35.087Z,99.90
2017-08-16T19:18:02.627Z,99.90
2017-08-16T19:20:30.271Z,99.90
2017-08-16T19:22:58.415Z,99.90
2017-08-16T19:25:26.115Z,99.90
2017-08-16T19:27:53.742Z,99.90
2017-08-16T19:30:21.435Z,99.90
2017-08-16T19:32:49.011Z,99.90
2017-08-16T19:35:16.815Z,99.90
2017-08-16T19:37:45.183Z,99.90
2017-08-16T19:40:12.985Z,99.90
2017-08-16T19:42:41.277Z,99.90
2017-08-16T19:45:09.158Z,99.90
2017-08-16T19:47:37.409Z,99.90
2017-08-16T19:50:05.932Z,99.90
2017-08-16T19:52:33.580Z,99.90
2017-08-16T19:55:01.421Z,99.90
2017-08-16T19:57:29.274Z,99.90
2017-08-16T19:59:57.149Z,99.90
2017-08-16T20:02:24.985Z,99.90
2017-08-16T20:04:52.975Z,99.90
2017-08-16T20:07:21.069Z,99.90
2017-08-16T20:09:49.006Z,99.90
2017-08-16T20:12:17.302Z,99.90
2017-08-16T20:14:46.225Z,99.90
2017-08-16T20:17:14.065Z,99.90
2017-08-16T20:19:42.336Z,99.90
2017-08-16T20:22:10.243Z,99.90
2017-08-16T20:24:39.209Z,99.90
2017-08-16T20:27:07.369Z,99.90
2017-08-16T20:29:36.055Z,99.90
2017-08-16T20:32:03.978Z,99.90
2017-08-16T20:34:31.607Z,99.90
2017-08-16T20:36:59.218Z,99.90
2017-08-16T20:39:26.748Z,99.90
2017-08-16T20:41:54.591Z,99.90
2017-08-16T20:44:22.550Z,99.90
2017-08-16T20:46:50.095Z,99.90
2017-08-16T20:49:18.001Z,99.90
2017-08-16T20:51:45.659Z,99.90
2017-08-16T20:54:13.296Z,99.90
2017-08-16T20:56:41.171Z,99.90
2017-08-16T20:59:08.866Z,99.90
2017-08-16T21:01:36.630Z,99.90
2017-08-16T21:04:04.368Z,99.90
2017-08-16T21:06:32.102Z,99.90
2017-08-16T21:08:59.773Z,99.90
2017-08-16T21:11:27.479Z,99.90
2017-08-16T21:13:55.279Z,99.90
2017-08-16T21:16:23.525Z,99.90
2017-08-16T21:18:51.577Z,99.90
2017-08-16T21:21:19.377Z,99.90
2017-08-16T21:23:46.894Z,99.90
2017-08-16T21:26:14.763Z,99.90
2017-08-16T21:28:42.275Z,99.90
2017-08-16T21:31:09.782Z,99.90
2017-08-16T21:33:37.915Z,99.90
2017-08-16T21:36:05.420Z,99.90
2017-08-16T21:38:32.922Z,99.90
2017-08-16T21:41:00.731Z,99.90
2017-08-16T21:43:28.243Z,99.90
2017-08-16T21:45:55.748Z,99.90
2017-08-16T21:48:23.312Z,99.90
2017-08-16T21:50:50.823Z,99.90
2017-08-16T21:53:18.375Z,99.90
2017-08-16T21:55:45.939Z,99.90
2017-08-16T21:58:13.448Z,99.90
2017-08-16T22:00:41.265Z,99.90
2017-08-16T22:03:09.083Z,99.90
2017-08-16T22:05:36.652Z,99.90
2017-08-16T22:08:04.164Z,99.90
2017-08-16T22:10:31.942Z,99.90
2017-08-16T22:12:59.448Z,99.90
2017-08-16T22:15:26.950Z,99.90
2017-08-16T22:17:54.512Z,99.90
2017-08-16T22:20:22.045Z,99.90
2017-08-16T22:22:49.575Z,99.90
2017-08-16T22:25:17.381Z,99.90
2017-08-16T22:27:44.885Z,99.90
2017-08-16T22:30:12.395Z,99.90
2017-08-16T22:32:40.226Z,99.90
2017-08-16T22:35:07.731Z,99.90
2017-08-16T22:37:35.239Z,99.90
2017-08-16T22:40:02.803Z,99.90
2017-08-16T22:42:30.410Z,99.90
2017-08-16T22:44:57.919Z,99.90
2017-08-16T22:47:25.477Z,99.90
2017-08-16T22:49:53.006Z,99.90
2017-08-16T22:52:20.512Z,99.90
2017-08-16T22:54:48.095Z,99.90
2017-08-16T22:57:16.292Z,99.90
2017-08-16T22:59:43.815Z,99.90
2017-08-16T23:02:11.676Z,99.90
2017-08-16T23:04:39.187Z,99.90
2017-08-16T23:07:06.696Z,99.90
2017-08-16T23:09:34.612Z,99.90
2017-08-16T23:12:02.127Z,99.90
2017-08-16T23:14:29.631Z,99.90
2017-08-16T23:16:57.250Z,99.90
2017-08-16T23:19:24.752Z,99.90
2017-08-16T23:21:52.271Z,99.90
2017-08-16T23:24:20.103Z,99.90
2017-08-16T23:26:47.614Z,99.90
2017-08-16T23:29:15.123Z,99.90
2017-08-16T23:31:42.910Z,99.90
2017-08-16T23:34:10.423Z,99.90
2017-08-16T23:36:38.216Z,99.90
2017-08-16T23:39:06.035Z,99.90
2017-08-16T23:41:33.542Z,99.90
2017-08-16T23:44:01.048Z,99.90
2017-08-16T23:46:28.744Z,99.90
2017-08-16T23:48:56.283Z,99.90
2017-08-16T23:51:23.795Z,99.90
2017-08-16T23:53:51.602Z,99.90
2017-08-16T23:56:19.109Z,99.90
2017-08-16T23:58:46.610Z,99.90
